createdAt,value
2022-11-02T00:01:29.687Z,98199.91
2022-11-02T00:03:56.418Z,98193.81
2022-11-02T00:06:23.001Z,98204.09
2022-11-02T00:08:49.568Z,98203.25
2022-11-02T00:11:16.148Z,98206.84
2022-11-02T00:13:42.763Z,98207.69
2022-11-02T00:16:14.721Z,98205.19
2022-11-02T00:18:44.252Z,98209.66
2022-11-02T00:21:11.404Z,98212.28
2022-11-02T00:23:38.361Z,98209.91
2022-11-02T00:26:05.164Z,98206.84
2022-11-02T00:28:31.815Z,98216.56
2022-11-02T00:30:58.412Z,98221.72
2022-11-02T00:33:26.450Z,98218.63
2022-11-02T00:35:54.191Z,98222.53
2022-11-02T00:38:20.823Z,98231.81
2022-11-02T00:40:47.379Z,98218.78
2022-11-02T00:43:14.280Z,98216.16
2022-11-02T00:45:41.101Z,98216.16
2022-11-02T00:48:07.796Z,98214.47
2022-11-02T00:50:34.606Z,98215.34
2022-11-02T00:53:01.292Z,98210.06
2022-11-02T00:55:28.198Z,98210.47
2022-11-02T00:57:59.925Z,98213.50
2022-11-02T01:00:26.556Z,98214.22
2022-11-02T01:02:53.126Z,98219.34
2022-11-02T01:05:19.772Z,98213.50
2022-11-02T01:07:47.493Z,98207.13
2022-11-02T01:10:14.068Z,98205.59
2022-11-02T01:12:40.823Z,98203.22
2022-11-02T01:15:10.602Z,98209.59
2022-11-02T01:17:37.972Z,98204.91
2022-11-02T01:20:06.488Z,98206.97
2022-11-02T01:22:33.182Z,98203.22
2022-11-02T01:24:59.909Z,98202.38
2022-11-02T01:27:26.598Z,98212.66
2022-11-02T01:29:53.256Z,98203.50
2022-11-02T01:32:19.881Z,98198.22
2022-11-02T01:34:46.460Z,98203.78
2022-11-02T01:37:13.043Z,98215.16
2022-11-02T01:39:39.772Z,98204.59
2022-11-02T01:42:20.859Z,98202.69
2022-11-02T01:44:47.544Z,98207.94
2022-11-02T01:47:26.964Z,98204.59
2022-11-02T01:49:58.836Z,98207.66
2022-11-02T01:52:34.189Z,98205.72
2022-11-02T01:55:29.466Z,98205.84
2022-11-02T01:58:05.217Z,98191.44
2022-11-02T02:00:33.360Z,98193.78
2022-11-02T02:03:12.159Z,98188.63
2022-11-02T02:05:42.499Z,98181.72
2022-11-02T02:08:10.592Z,98173.22
2022-11-02T02:10:37.162Z,98191.25
2022-11-02T02:13:06.948Z,98182.41
2022-11-02T02:15:43.472Z,98191.84
2022-11-02T02:18:36.113Z,98185.59
2022-11-02T02:21:21.025Z,98185.03
2022-11-02T02:24:07.040Z,98178.78
2022-11-02T02:26:57.918Z,98183.63
2022-11-02T02:29:35.517Z,98181.00
2022-11-02T02:32:12.068Z,98176.28
2022-11-02T02:34:53.847Z,98173.78
2022-11-02T02:37:36.523Z,98178.25
2022-11-02T02:40:32.669Z,98180.88
2022-11-02T02:43:06.875Z,98179.31
2022-11-02T02:45:40.204Z,98193.19
2022-11-02T02:48:26.888Z,98193.06
2022-11-02T02:50:59.760Z,98208.34
2022-11-02T02:53:36.049Z,98201.56
2022-11-02T02:56:04.988Z,98204.44
2022-11-02T02:58:39.657Z,98198.22
2022-11-02T03:01:07.388Z,98198.34
2022-11-02T03:03:36.539Z,98200.16
2022-11-02T03:06:09.133Z,98192.50
2022-11-02T03:08:41.151Z,98191.53
2022-11-02T03:11:21.669Z,98185.44
2022-11-02T03:14:17.803Z,98187.22
2022-11-02T03:16:53.219Z,98186.16
2022-11-02T03:19:29.435Z,98185.16
2022-11-02T03:22:04.770Z,98186.97
2022-11-02T03:24:34.939Z,98199.56
2022-11-02T03:27:21.204Z,98192.06
2022-11-02T03:30:04.331Z,98191.38
2022-11-02T03:32:51.256Z,98201.66
2022-11-02T03:35:31.514Z,98205.09
2022-11-02T03:38:23.822Z,98207.56
2022-11-02T03:40:56.856Z,98205.88
2022-11-02T03:43:25.601Z,98205.69
2022-11-02T03:46:02.782Z,98220.38
2022-11-02T03:48:36.052Z,98216.22
2022-11-02T03:51:10.155Z,98213.25
2022-11-02T03:53:59.491Z,98221.38
2022-11-02T03:56:38.009Z,98223.56
2022-11-02T03:59:04.693Z,98226.91
2022-11-02T04:01:39.590Z,98227.09
2022-11-02T04:04:06.269Z,98233.78
2022-11-02T04:06:34.028Z,98232.41
2022-11-02T04:09:01.216Z,98232.44
2022-11-02T04:11:47.133Z,98237.97
2022-11-02T04:14:33.356Z,98232.31
2022-11-02T04:17:27.590Z,98233.97
2022-11-02T04:19:56.395Z,98241.63
2022-11-02T04:22:42.927Z,98227.75
2022-11-02T04:25:19.460Z,98233.84
2022-11-02T04:27:55.272Z,98235.50
2022-11-02T04:30:29.810Z,98240.53
2022-11-02T04:33:17.375Z,98235.25
2022-11-02T04:35:50.227Z,98244.13
2022-11-02T04:38:36.600Z,98244.53
2022-11-02T04:41:21.924Z,98239.28
2022-11-02T04:43:50.952Z,98237.50
2022-11-02T04:46:19.515Z,98237.63
2022-11-02T04:48:47.196Z,98254.53
2022-11-02T04:51:14.657Z,98250.22
2022-11-02T04:53:41.289Z,98249.66
2022-11-02T04:56:09.898Z,98246.31
2022-11-02T04:58:36.712Z,98247.28
2022-11-02T05:01:09.335Z,98241.56
2022-11-02T05:03:36.850Z,98241.84
2022-11-02T05:06:03.817Z,98247.06
2022-11-02T05:08:31.204Z,98239.94
2022-11-02T05:10:59.169Z,98244.88
2022-11-02T05:13:27.442Z,98244.72
2022-11-02T05:15:58.044Z,98247.50
2022-11-02T05:18:26.900Z,98253.41
2022-11-02T05:20:58.131Z,98252.69
2022-11-02T05:23:27.813Z,98248.38
2022-11-02T05:25:59.305Z,98252.63
2022-11-02T05:28:27.535Z,98249.41
2022-11-02T05:30:54.965Z,98243.44
2022-11-02T05:33:26.608Z,98243.56
2022-11-02T05:35:59.340Z,98253.25
2022-11-02T05:38:27.151Z,98255.19
2022-11-02T05:40:58.183Z,98253.50
2022-11-02T05:43:28.212Z,98264.28
2022-11-02T05:45:58.224Z,98262.84
2022-11-02T05:48:26.251Z,98262.97
2022-11-02T05:50:56.945Z,98264.06
2022-11-02T05:53:24.898Z,98270.88
2022-11-02T05:55:51.537Z,98274.47
2022-11-02T05:58:18.204Z,98275.28
2022-11-02T06:00:44.805Z,98281.53
2022-11-02T06:03:11.403Z,98277.66
2022-11-02T06:05:38.020Z,98282.56
2022-11-02T06:08:04.776Z,98287.59
2022-11-02T06:10:31.685Z,98284.81
2022-11-02T06:13:00.722Z,98283.97
2022-11-02T06:15:28.582Z,98289.63
2022-11-02T06:17:55.411Z,98290.81
2022-11-02T06:20:22.415Z,98289.16
2022-11-02T06:22:49.540Z,98299.94
2022-11-02T06:25:16.810Z,98294.69
2022-11-02T06:27:51.288Z,98305.63
2022-11-02T06:30:18.891Z,98309.25
2022-11-02T06:32:49.772Z,98308.44
2022-11-02T06:35:18.104Z,98310.81
2022-11-02T06:37:45.857Z,98306.69
2022-11-02T06:40:13.539Z,98308.66
2022-11-02T06:42:45.145Z,98320.34
2022-11-02T06:45:24.021Z,98320.19
2022-11-02T06:47:51.159Z,98318.31
2022-11-02T06:50:18.189Z,98328.84
2022-11-02T06:52:46.610Z,98324.44
2022-11-02T06:55:14.831Z,98332.06
2022-11-02T06:57:42.753Z,98332.78
2022-11-02T07:00:14.590Z,98332.78
2022-11-02T07:02:45.848Z,98329.50
2022-11-02T07:05:13.431Z,98330.03
2022-11-02T07:07:39.992Z,98326.56
2022-11-02T07:10:10.144Z,98330.81
2022-11-02T07:12:37.001Z,98334.03
2022-11-02T07:15:03.789Z,98329.13
2022-11-02T07:17:32.331Z,98336.63
2022-11-02T07:19:59.053Z,98331.63
2022-11-02T07:22:25.731Z,98335.53
2022-11-02T07:24:52.327Z,98344.41
2022-11-02T07:27:20.734Z,98346.34
2022-11-02T07:29:47.556Z,98345.75
2022-11-02T07:32:14.994Z,98350.41
2022-11-02T07:34:41.614Z,98345.28
2022-11-02T07:37:08.219Z,98345.88
2022-11-02T07:39:40.733Z,98349.06
2022-11-02T07:42:10.302Z,98340.91
2022-11-02T07:44:37.844Z,98343.97
2022-11-02T07:47:04.479Z,98332.72
2022-11-02T07:49:31.088Z,98352.19
2022-11-02T07:51:57.680Z,98347.78
2022-11-02T07:54:24.492Z,98345.06
2022-11-02T07:56:51.160Z,98351.63
2022-11-02T07:59:17.722Z,98343.94
2022-11-02T08:01:44.425Z,98342.00
2022-11-02T08:04:11.196Z,98346.19
2022-11-02T08:06:37.933Z,98347.56
2022-11-02T08:09:04.560Z,98342.34
2022-11-02T08:11:31.216Z,98343.19
2022-11-02T08:13:57.808Z,98341.91
2022-11-02T08:16:24.441Z,98340.88
2022-11-02T08:18:51.022Z,98334.38
2022-11-02T08:21:17.699Z,98335.28
2022-11-02T08:23:44.290Z,98342.31
2022-11-02T08:26:11.027Z,98334.88
2022-11-02T08:28:40.285Z,98335.41
2022-11-02T08:31:12.093Z,98347.31
2022-11-02T08:33:38.682Z,98347.81
2022-11-02T08:36:05.650Z,98340.09
2022-11-02T08:38:32.452Z,98342.44
2022-11-02T08:40:59.059Z,98340.25
2022-11-02T08:43:25.906Z,98348.13
2022-11-02T08:48:39.106Z,98349.66
2022-11-02T08:51:08.153Z,98333.97
2022-11-02T08:53:35.083Z,98343.47
2022-11-02T08:56:02.301Z,98344.09
2022-11-02T08:58:29.201Z,98340.06
2022-11-02T09:00:56.448Z,98339.28
2022-11-02T09:03:26.773Z,98335.31
2022-11-02T09:05:59.841Z,98340.34
2022-11-02T09:08:28.123Z,98340.72
2022-11-02T09:11:02.465Z,98337.88
2022-11-02T09:13:29.587Z,98333.41
2022-11-02T09:15:58.515Z,98341.50
2022-11-02T09:18:26.909Z,98338.63
2022-11-02T09:20:53.735Z,98340.59
2022-11-02T09:23:21.870Z,98333.19
2022-11-02T09:25:49.686Z,98341.28
2022-11-02T09:28:16.316Z,98345.72
2022-11-02T09:30:43.716Z,98340.28
2022-11-02T09:33:11.105Z,98349.94
2022-11-02T09:35:43.981Z,98339.91
2022-11-02T09:38:11.453Z,98341.75
2022-11-02T09:40:42.277Z,98338.06
2022-11-02T09:43:39.661Z,98335.31
2022-11-02T09:46:11.346Z,98339.41
2022-11-02T09:48:43.677Z,98340.09
2022-11-02T09:51:23.637Z,98334.34
2022-11-02T09:54:13.222Z,98331.75
2022-11-02T09:56:45.284Z,98328.47
2022-11-02T09:59:18.614Z,98327.19
2022-11-02T10:02:18.483Z,98332.66
2022-11-02T10:05:10.085Z,98332.34
2022-11-02T10:07:55.476Z,98331.53
2022-11-02T10:10:25.610Z,98325.53
2022-11-02T10:13:34.882Z,98328.19
2022-11-02T10:16:19.549Z,98324.25
2022-11-02T10:18:50.573Z,98327.31
2022-11-02T10:21:28.174Z,98330.53
2022-11-02T10:23:58.329Z,98319.56
2022-11-02T10:26:33.146Z,98318.53
2022-11-02T10:29:06.809Z,98314.84
2022-11-02T10:31:34.499Z,98315.22
2022-11-02T10:34:25.950Z,98318.84
2022-11-02T10:37:11.001Z,98317.16
2022-11-02T10:40:22.252Z,98312.56
2022-11-02T10:42:56.911Z,98308.38
2022-11-02T10:45:44.692Z,98305.41
2022-11-02T10:48:18.527Z,98305.59
2022-11-02T10:51:08.212Z,98303.19
2022-11-02T10:53:46.796Z,98286.66
2022-11-02T10:56:16.683Z,98282.53
2022-11-02T10:59:15.565Z,98290.25
2022-11-02T11:01:48.628Z,98286.19
2022-11-02T11:04:25.718Z,98282.16
2022-11-02T11:06:54.532Z,98291.63
2022-11-02T11:09:23.027Z,98281.06
2022-11-02T11:12:07.233Z,98279.16
2022-11-02T11:20:35.157Z,98270.59
2022-11-02T11:23:08.189Z,98260.28
2022-11-02T11:25:34.800Z,98262.38
2022-11-02T11:28:02.169Z,98265.09
2022-11-02T11:30:58.473Z,98271.00
2022-11-02T11:33:20.688Z,98255.25
2022-11-02T11:35:50.009Z,98263.25
2022-11-02T11:38:22.912Z,98255.38
2022-11-02T11:40:54.345Z,98253.38
2022-11-02T11:43:24.989Z,98252.91
2022-11-02T11:46:05.846Z,98243.84
2022-11-02T11:48:40.800Z,98244.97
2022-11-02T11:51:28.356Z,98234.03
2022-11-02T11:54:21.221Z,98238.97
2022-11-02T11:56:49.207Z,98236.69
2022-11-02T11:59:20.140Z,98240.53
2022-11-02T12:01:47.323Z,98243.59
2022-11-02T12:04:25.991Z,98229.72
2022-11-02T12:07:21.742Z,98231.72
2022-11-02T12:10:06.709Z,98228.53
2022-11-02T12:12:42.007Z,98231.13
2022-11-02T12:15:39.864Z,98233.00
2022-11-02T12:18:12.449Z,98233.28
2022-11-02T12:20:39.137Z,98229.22
2022-11-02T12:23:41.614Z,98230.13
2022-11-02T12:26:18.537Z,98220.34
2022-11-02T12:29:06.002Z,98217.63
2022-11-02T12:31:48.035Z,98215.13
2022-11-02T12:34:42.870Z,98216.13
2022-11-02T12:37:38.990Z,98215.75
2022-11-02T12:40:30.517Z,98204.91
2022-11-02T12:43:12.728Z,98210.94
2022-11-02T12:45:51.184Z,98199.19
2022-11-02T12:48:29.941Z,98203.84
2022-11-02T12:51:03.037Z,98198.28
2022-11-02T12:53:50.798Z,98195.50
2022-11-02T12:56:25.813Z,98188.66
2022-11-02T12:58:53.241Z,98188.13
2022-11-02T13:01:40.996Z,98190.09
2022-11-02T13:04:24.629Z,98190.81
2022-11-02T13:07:04.328Z,98191.34
2022-11-02T13:09:48.924Z,98183.25
2022-11-02T13:12:21.986Z,98183.09
2022-11-02T13:14:52.258Z,98178.28
2022-11-02T13:18:08.532Z,98184.25
2022-11-02T13:20:45.581Z,98180.56
2022-11-02T13:23:22.901Z,98177.09
2022-11-02T13:25:54.317Z,98172.69
2022-11-02T13:28:46.895Z,98179.00
2022-11-02T13:31:18.188Z,98181.44
2022-11-02T13:33:48.586Z,98180.66
2022-11-02T13:39:11.305Z,98175.53
2022-11-02T13:41:58.568Z,98179.25
2022-11-02T13:44:34.177Z,98179.44
2022-11-02T13:47:30.429Z,98183.53
2022-11-02T13:49:58.864Z,98185.97
2022-11-02T13:52:39.708Z,98192.00
2022-11-02T13:55:13.938Z,98193.38
2022-11-02T13:57:44.928Z,98192.84
2022-11-02T14:00:38.590Z,98188.88
2022-11-02T14:03:22.079Z,98194.34
2022-11-02T14:05:53.690Z,98192.31
2022-11-02T14:08:41.005Z,98185.09
2022-11-02T14:11:10.549Z,98193.84
2022-11-02T14:13:55.302Z,98190.09
2022-11-02T14:16:40.333Z,98195.91
2022-11-02T14:19:18.051Z,98188.88
2022-11-02T14:22:10.284Z,98203.28
2022-11-02T14:24:37.034Z,98193.50
2022-11-02T14:27:04.761Z,98197.16
2022-11-02T14:29:50.756Z,98192.75
2022-11-02T14:32:17.562Z,98202.28
2022-11-02T14:35:04.489Z,98202.50
2022-11-02T14:37:52.861Z,98208.59
2022-11-02T14:40:28.489Z,98207.44
2022-11-02T14:43:32.376Z,98211.16
2022-11-02T14:46:20.361Z,98215.88
2022-11-02T14:48:54.866Z,98218.38
2022-11-02T14:51:28.885Z,98215.63
2022-11-02T14:54:15.707Z,98211.44
2022-11-02T14:56:56.481Z,98222.66
2022-11-02T14:59:39.775Z,98227.78
2022-11-02T15:02:20.172Z,98224.31
2022-11-02T15:04:51.231Z,98224.50
2022-11-02T15:07:34.760Z,98216.88
2022-11-02T15:10:28.022Z,98227.69
2022-11-02T15:13:20.656Z,98229.66
2022-11-02T15:15:56.332Z,98227.84
2022-11-02T15:18:38.776Z,98231.66
2022-11-02T15:21:11.475Z,98235.66
2022-11-02T15:23:58.537Z,98235.97
2022-11-02T15:26:39.150Z,98234.97
2022-11-02T15:29:36.092Z,98246.28
2022-11-02T15:32:06.454Z,98252.88
2022-11-02T15:34:54.350Z,98259.50
2022-11-02T15:37:37.333Z,98256.47
2022-11-02T15:40:21.695Z,98258.63
2022-11-02T15:43:16.273Z,98258.44
2022-11-02T15:46:04.991Z,98253.59
2022-11-02T15:48:49.936Z,98258.75
2022-11-02T15:51:29.515Z,98248.13
2022-11-02T15:54:06.235Z,98262.19
2022-11-02T15:57:09.785Z,98264.31
2022-11-02T15:59:42.658Z,98261.63
2022-11-02T16:02:23.969Z,98265.22
2022-11-02T16:04:56.825Z,98262.53
2022-11-02T16:07:29.153Z,98267.47
2022-11-02T16:10:32.973Z,98262.28
2022-11-02T16:13:00.762Z,98264.59
2022-11-02T16:15:28.988Z,98264.38
2022-11-02T16:17:56.037Z,98266.00
2022-11-02T16:20:25.038Z,98259.66
2022-11-02T16:22:56.029Z,98263.88
2022-11-02T16:25:39.613Z,98267.44
2022-11-02T16:28:12.486Z,98265.25
2022-11-02T16:30:39.556Z,98262.25
2022-11-02T16:33:07.309Z,98253.91
2022-11-02T16:35:34.436Z,98251.25
2022-11-02T16:38:01.455Z,98254.00
2022-11-02T16:40:28.437Z,98262.41
2022-11-02T16:42:55.647Z,98263.03
2022-11-02T16:45:40.203Z,98270.88
2022-11-02T16:48:18.698Z,98278.00
2022-11-02T16:51:19.432Z,98284.25
2022-11-02T16:53:46.488Z,98278.97
2022-11-02T16:56:29.429Z,98278.59
2022-11-02T16:59:03.491Z,98278.06
2022-11-02T17:01:39.097Z,98281.00
2022-11-02T17:04:25.703Z,98281.19
2022-11-02T17:07:12.741Z,98281.44
2022-11-02T17:09:40.070Z,98294.69
2022-11-02T17:12:17.356Z,98286.47
2022-11-02T17:14:50.113Z,98287.16
2022-11-02T17:17:22.587Z,98291.06
2022-11-02T17:20:18.089Z,98298.03
2022-11-02T17:22:50.808Z,98293.84
2022-11-02T17:25:22.164Z,98290.69
2022-11-02T17:27:51.251Z,98291.41
2022-11-02T17:30:30.162Z,98298.47
2022-11-02T17:32:58.408Z,98297.09
2022-11-02T17:35:27.450Z,98293.38
2022-11-02T17:37:54.923Z,98293.25
2022-11-02T17:40:22.198Z,98293.88
2022-11-02T17:42:59.868Z,98296.09
2022-11-02T17:45:31.000Z,98308.19
2022-11-02T17:47:59.404Z,98310.31
2022-11-02T17:50:31.297Z,98311.44
2022-11-02T17:52:59.774Z,98309.75
2022-11-02T17:55:32.217Z,98308.69
2022-11-02T17:58:00.363Z,98305.34
2022-11-02T18:00:28.306Z,98306.47
2022-11-02T18:02:57.871Z,98311.75
2022-11-02T18:05:30.005Z,98311.78
2022-11-02T18:07:58.781Z,98308.06
2022-11-02T18:10:30.552Z,98313.47
2022-11-02T18:12:57.631Z,98312.63
2022-11-02T18:15:28.574Z,98318.91
2022-11-02T18:17:56.616Z,98321.56
2022-11-02T18:20:24.621Z,98328.19
2022-11-02T18:22:51.513Z,98332.94
2022-11-02T18:27:50.668Z,98322.59
2022-11-02T18:30:18.997Z,98319.06
2022-11-02T18:32:47.122Z,98321.16
2022-11-02T18:35:17.671Z,98317.25
2022-11-02T18:37:45.355Z,98315.28
2022-11-02T18:40:14.384Z,98323.22
2022-11-02T18:42:43.369Z,98327.56
2022-11-02T18:45:12.706Z,98326.56
2022-11-02T18:47:40.280Z,98332.53
2022-11-02T18:50:08.329Z,98326.94
2022-11-02T18:52:35.245Z,98322.22
2022-11-02T18:55:03.777Z,98320.25
2022-11-02T18:57:31.659Z,98321.78
2022-11-02T18:59:59.408Z,98324.41
2022-11-02T19:02:26.211Z,98327.75
2022-11-02T19:04:52.861Z,98327.44
2022-11-02T19:07:38.477Z,98326.19
2022-11-02T19:10:05.921Z,98331.91
2022-11-02T19:12:32.471Z,98331.09
2022-11-02T19:14:59.472Z,98336.66
2022-11-02T19:17:26.878Z,98332.19
2022-11-02T19:19:54.790Z,98339.97
2022-11-02T19:22:23.903Z,98341.66
2022-11-02T19:24:50.940Z,98341.38
2022-11-02T19:27:20.321Z,98341.38
2022-11-02T19:29:47.422Z,98347.78
2022-11-02T19:32:15.694Z,98347.09
2022-11-02T19:34:43.074Z,98358.75
2022-11-02T19:37:13.058Z,98352.78
2022-11-02T19:39:41.901Z,98348.31
2022-11-02T19:42:09.023Z,98358.41
2022-11-02T19:44:42.444Z,98350.31
2022-11-02T19:47:10.221Z,98353.09
2022-11-02T19:49:36.916Z,98352.44
2022-11-02T19:52:04.063Z,98353.03
2022-11-02T19:54:31.049Z,98351.94
2022-11-02T19:56:57.777Z,98355.72
2022-11-02T19:59:24.741Z,98354.78
2022-11-02T20:01:52.277Z,98353.41
2022-11-02T20:04:19.196Z,98354.53
2022-11-02T20:06:46.389Z,98341.72
2022-11-02T20:09:20.320Z,98351.19
2022-11-02T20:11:48.487Z,98353.88
2022-11-02T20:14:17.541Z,98354.44
2022-11-02T20:16:47.291Z,98360.03
2022-11-02T20:19:20.501Z,98355.72
2022-11-02T20:21:47.339Z,98359.47
2022-11-02T20:24:14.188Z,98366.03
2022-11-02T20:26:41.387Z,98369.38
2022-11-02T20:29:10.898Z,98375.06
2022-11-02T20:31:41.930Z,98368.25
2022-11-02T20:34:09.025Z,98369.38
2022-11-02T20:36:35.777Z,98373.28
2022-11-02T20:39:04.795Z,98374.13
2022-11-02T20:41:31.899Z,98374.56
2022-11-02T20:43:58.693Z,98369.41
2022-11-02T20:46:39.096Z,98366.88
2022-11-02T20:49:20.171Z,98365.25
2022-11-02T20:51:48.684Z,98374.16
2022-11-02T20:54:15.345Z,98376.63
2022-11-02T20:56:41.972Z,98369.69
2022-11-02T20:59:08.848Z,98367.31
2022-11-02T21:01:35.538Z,98361.19
2022-11-02T21:04:02.848Z,98365.53
2022-11-02T21:06:29.645Z,98362.44
2022-11-02T21:08:56.885Z,98362.44
2022-11-02T21:11:41.731Z,98366.06
2022-11-02T21:14:08.308Z,98365.78
2022-11-02T21:16:34.949Z,98365.78
2022-11-02T21:19:01.746Z,98365.94
2022-11-02T21:21:28.327Z,98357.31
2022-11-02T21:23:55.384Z,98371.78
2022-11-02T21:26:21.981Z,98360.69
2022-11-02T21:28:48.573Z,98363.84
2022-11-02T21:31:19.271Z,98359.00
2022-11-02T21:33:47.320Z,98359.97
2022-11-02T21:36:15.735Z,98359.13
2022-11-02T21:38:44.975Z,98361.22
2022-11-02T21:41:18.477Z,98360.22
2022-11-02T21:43:45.332Z,98361.91
2022-11-02T21:46:11.955Z,98362.75
2022-11-02T21:48:38.968Z,98367.91
2022-11-02T21:51:09.058Z,98354.69
2022-11-02T21:53:38.447Z,98357.47
2022-11-02T21:56:26.639Z,98358.44
2022-11-02T21:58:56.266Z,98371.38
2022-11-02T22:01:49.630Z,98364.16
2022-11-02T22:04:24.975Z,98362.47
2022-11-02T22:06:52.342Z,98356.34
2022-11-02T22:09:19.088Z,98361.63
2022-11-02T22:11:45.768Z,98354.66
2022-11-02T22:14:13.154Z,98357.75
2022-11-02T22:16:42.109Z,98363.16
2022-11-02T22:19:11.421Z,98357.06
2022-11-02T22:21:40.529Z,98359.13
2022-11-02T22:24:07.467Z,98358.16
2022-11-02T22:26:35.938Z,98358.31
2022-11-02T22:29:03.613Z,98357.31
2022-11-02T22:31:35.627Z,98349.38
2022-11-02T22:34:04.574Z,98360.53
2022-11-02T22:36:33.012Z,98358.00
2022-11-02T22:39:01.773Z,98353.31
2022-11-02T22:41:30.731Z,98355.53
2022-11-02T22:44:02.502Z,98356.34
2022-11-02T22:46:31.413Z,98352.47
2022-11-02T22:48:59.497Z,98360.38
2022-11-02T22:51:28.502Z,98365.66
2022-11-02T22:53:55.529Z,98373.19
2022-11-02T22:56:23.661Z,98369.00
2022-11-02T22:58:50.565Z,98371.66
2022-11-02T23:01:22.697Z,98371.66
2022-11-02T23:03:50.777Z,98368.44
2022-11-02T23:06:21.110Z,98366.38
2022-11-02T23:08:49.241Z,98362.88
2022-11-02T23:11:21.686Z,98363.56
2022-11-02T23:13:55.045Z,98357.47
2022-11-02T23:16:26.197Z,98359.97
2022-11-02T23:19:28.547Z,98350.53
2022-11-02T23:22:26.608Z,98356.34
2022-11-02T23:25:14.850Z,98356.50
2022-11-02T23:28:00.665Z,98358.28
2022-11-02T23:30:52.644Z,98350.53
2022-11-02T23:33:19.596Z,98349.81
2022-11-02T23:36:04.731Z,98346.88
2022-11-02T23:38:49.940Z,98350.78
2022-11-02T23:41:18.047Z,98359.69
2022-11-02T23:43:45.227Z,98352.59
2022-11-02T23:46:11.862Z,98349.13
2022-11-02T23:48:38.490Z,98357.88
2022-11-02T23:51:23.838Z,98357.75
2022-11-02T23:54:09.185Z,98345.50
2022-11-02T23:56:45.050Z,98351.34
2022-11-02T23:59:16.037Z,98352.88
